Time;durP1;ratioP1;P1;durP2;ratioP2;P2;SDS_P1;SDS_P2;PMS_P1;PMS_P2;Temp;Humidity;BMP_temperature;BMP_pressure;BME280_temperature;BME280_humidity;BME280_pressure;Samples;Min_cycle;Max_cycle;Signal;HPM_P1;HPM_P2
2021/06/19 00:01:32;;;;;;;7.53;0.90;;;;;;;;;;4905653;29;20051;-51
2021/06/19 00:03:57;;;;;;;5.10;1.00;;;;;;;;;;4907250;29;20051;-52
2021/06/19 00:06:23;;;;;;;9.52;1.10;;;;;;;;;;4906716;29;20040;-53
2021/06/19 00:08:49;;;;;;;6.68;1.00;;;;;;;;;;4907685;29;20048;-53
2021/06/19 00:11:15;;;;;;;4.13;1.00;;;;;;;;;;4888521;29;20116;-53
2021/06/19 00:13:41;;;;;;;6.10;1.50;;;;;;;;;;4906407;29;20071;-53
2021/06/19 00:16:06;;;;;;;7.53;0.85;;;;;;;;;;4906102;29;20052;-54
2021/06/19 00:18:33;;;;;;;5.45;0.88;;;;;;;;;;4904500;29;20425;-55
2021/06/19 00:20:59;;;;;;;5.57;1.13;;;;;;;;;;4907468;29;20059;-55
2021/06/19 00:23:25;;;;;;;5.97;1.00;;;;;;;;;;4906715;29;20036;-56
2021/06/19 00:25:50;;;;;;;7.47;1.00;;;;;;;;;;4907474;29;20039;-52
2021/06/19 00:28:16;;;;;;;5.95;0.90;;;;;;;;;;4908086;29;20048;-55
2021/06/19 00:30:42;;;;;;;4.15;0.90;;;;;;;;;;4905855;29;20048;-54
2021/06/19 00:33:08;;;;;;;30.63;2.22;;;;;;;;;;4906613;29;20059;-55
2021/06/19 00:35:34;;;;;;;3.75;0.93;;;;;;;;;;4905196;29;20047;-57
2021/06/19 00:38:00;;;;;;;5.82;0.90;;;;;;;;;;4907455;29;20044;-54
2021/06/19 00:40:26;;;;;;;7.75;1.00;;;;;;;;;;4906711;29;20055;-55
2021/06/19 00:42:53;;;;;;;5.35;1.38;;;;;;;;;;4909724;29;20031;-55
2021/06/19 00:45:19;;;;;;;7.03;0.93;;;;;;;;;;4904860;29;20036;-54
2021/06/19 00:47:45;;;;;;;9.57;1.10;;;;;;;;;;4907838;29;20051;-54
2021/06/19 00:50:12;;;;;;;6.55;0.93;;;;;;;;;;4890649;29;20032;-55
2021/06/19 00:52:37;;;;;;;6.95;1.17;;;;;;;;;;4908380;29;20071;-55
2021/06/19 00:55:04;;;;;;;6.20;1.40;;;;;;;;;;4907711;29;20040;-56
2021/06/19 00:57:31;;;;;;;6.32;1.02;;;;;;;;;;4907404;29;20040;-55
2021/06/19 00:59:58;;;;;;;4.93;0.80;;;;;;;;;;4906655;29;20043;-55
2021/06/19 01:02:24;;;;;;;6.90;0.90;;;;;;;;;;4906984;29;20032;-54
2021/06/19 01:04:50;;;;;;;5.85;1.23;;;;;;;;;;4905559;29;20138;-56
2021/06/19 01:07:16;;;;;;;10.68;1.15;;;;;;;;;;4906862;29;21325;-55
2021/06/19 01:09:42;;;;;;;9.15;1.10;;;;;;;;;;4905931;29;20472;-55
2021/06/19 01:12:08;;;;;;;9.23;1.00;;;;;;;;;;4905919;29;20076;-55
2021/06/19 01:14:34;;;;;;;8.48;1.58;;;;;;;;;;4905146;29;20059;-55
2021/06/19 01:17:00;;;;;;;7.55;1.30;;;;;;;;;;4908116;29;20040;-55
2021/06/19 01:19:26;;;;;;;8.45;1.33;;;;;;;;;;4905755;29;20050;-55
2021/06/19 01:21:53;;;;;;;9.82;1.30;;;;;;;;;;4906385;29;20533;-55
2021/06/19 01:24:21;;;;;;;7.68;1.80;;;;;;;;;;4906495;29;20401;-54
2021/06/19 01:26:47;;;;;;;5.90;1.10;;;;;;;;;;4906705;29;20048;-55
2021/06/19 01:29:13;;;;;;;6.10;1.27;;;;;;;;;;4906243;29;20044;-56
2021/06/19 01:31:39;;;;;;;7.93;1.10;;;;;;;;;;4904159;29;20092;-53
2021/06/19 01:34:05;;;;;;;7.68;1.13;;;;;;;;;;4908277;29;20052;-55
2021/06/19 01:36:31;;;;;;;5.50;1.30;;;;;;;;;;4906300;29;20102;-55
2021/06/19 01:38:57;;;;;;;7.88;1.55;;;;;;;;;;4906916;29;20039;-55
2021/06/19 01:41:25;;;;;;;4.85;1.13;;;;;;;;;;4906629;29;20102;-55
2021/06/19 01:43:57;;;;;;;9.15;1.38;;;;;;;;;;4906342;29;20406;-53
2021/06/19 01:46:22;;;;;;;;;;;;;;;;;;4906571;29;20050;-51
2021/06/19 01:48:48;;;;;;;5.00;1.10;;;;;;;;;;4904618;29;20412;-54
2021/06/19 01:51:14;;;;;;;10.30;1.20;;;;;;;;;;4903838;29;20033;-54
2021/06/19 01:53:41;;;;;;;6.57;1.20;;;;;;;;;;4903744;29;20446;-53
2021/06/19 01:56:08;;;;;;;9.63;1.38;;;;;;;;;;4902660;29;20055;-54
2021/06/19 01:58:34;;;;;;;5.95;1.48;;;;;;;;;;4904640;29;22136;-56
2021/06/19 02:01:00;;;;;;;10.15;1.35;;;;;;;;;;4904532;29;20091;-56
2021/06/19 02:03:26;;;;;;;7.00;1.10;;;;;;;;;;4903785;29;20040;-54
2021/06/19 02:05:52;;;;;;;7.70;1.23;;;;;;;;;;4906588;29;20808;-54
2021/06/19 02:08:19;;;;;;;9.23;1.23;;;;;;;;;;4906086;29;20040;-54
2021/06/19 02:10:45;;;;;;;14.38;1.20;;;;;;;;;;4905099;29;20405;-54
2021/06/19 02:13:11;;;;;;;7.75;1.08;;;;;;;;;;4888321;29;20055;-55
2021/06/19 02:15:38;;;;;;;9.40;1.25;;;;;;;;;;4904455;29;20225;-53
2021/06/19 02:18:04;;;;;;;7.25;1.38;;;;;;;;;;4904517;29;20878;-56
2021/06/19 02:20:29;;;;;;;9.35;1.50;;;;;;;;;;4902788;29;20072;-55
2021/06/19 02:22:56;;;;;;;10.15;1.60;;;;;;;;;;4903731;29;20102;-55
2021/06/19 02:25:23;;;;;;;11.27;1.35;;;;;;;;;;4904555;29;20126;-55
2021/06/19 02:27:50;;;;;;;7.13;1.38;;;;;;;;;;4906909;29;20036;-55
2021/06/19 02:30:16;;;;;;;8.10;1.25;;;;;;;;;;4905374;29;20043;-58
2021/06/19 02:32:42;;;;;;;8.32;1.50;;;;;;;;;;4906830;29;20059;-56
2021/06/19 02:35:08;;;;;;;10.23;1.42;;;;;;;;;;4907766;29;20052;-56
2021/06/19 02:37:34;;;;;;;6.38;1.30;;;;;;;;;;4904571;29;20036;-55
2021/06/19 02:40:00;;;;;;;10.65;1.80;;;;;;;;;;4905111;29;20486;-53
2021/06/19 02:42:26;;;;;;;7.05;1.30;;;;;;;;;;4906787;29;20118;-54
2021/06/19 02:44:52;;;;;;;10.30;1.25;;;;;;;;;;4906703;29;20414;-54
2021/06/19 02:47:17;;;;;;;6.85;1.23;;;;;;;;;;4906253;29;20167;-56
2021/06/19 02:49:43;;;;;;;10.23;1.23;;;;;;;;;;4904044;29;20056;-56
2021/06/19 02:52:10;;;;;;;9.25;1.10;;;;;;;;;;4907172;29;20048;-55
2021/06/19 02:54:40;;;;;;;19.10;2.20;;;;;;;;;;4906166;29;20040;-54
2021/06/19 02:57:09;;;;;;;11.45;1.48;;;;;;;;;;4907075;29;20043;-54
2021/06/19 02:59:35;;;;;;;14.82;2.13;;;;;;;;;;4902801;29;20054;-55
2021/06/19 03:02:01;;;;;;;11.30;2.20;;;;;;;;;;4907551;29;20048;-53
2021/06/19 03:04:27;;;;;;;9.70;1.30;;;;;;;;;;4906597;29;20047;-55
2021/06/19 03:06:53;;;;;;;11.30;1.40;;;;;;;;;;4909439;29;20059;-55
2021/06/19 03:09:18;;;;;;;7.43;1.20;;;;;;;;;;4909573;29;20104;-55
2021/06/19 03:11:45;;;;;;;7.53;1.45;;;;;;;;;;4910510;29;20044;-56
2021/06/19 03:14:11;;;;;;;11.80;1.60;;;;;;;;;;4910019;29;20473;-52
2021/06/19 03:16:36;;;;;;;7.97;1.50;;;;;;;;;;4907718;29;20082;-54
2021/06/19 03:19:05;;;;;;;7.75;1.30;;;;;;;;;;4906974;29;20119;-55
2021/06/19 03:21:31;;;;;;;6.40;1.35;;;;;;;;;;4907177;29;20044;-55
2021/06/19 03:23:57;;;;;;;13.15;1.52;;;;;;;;;;4908897;29;20068;-56
2021/06/19 03:26:23;;;;;;;10.07;1.30;;;;;;;;;;4907729;29;20174;-55
2021/06/19 03:28:49;;;;;;;10.05;1.10;;;;;;;;;;4909516;29;20043;-55
2021/06/19 03:31:15;;;;;;;9.15;1.30;;;;;;;;;;4906049;29;20071;-54
2021/06/19 03:33:40;;;;;;;7.20;1.25;;;;;;;;;;4906936;29;20138;-54
2021/06/19 03:36:06;;;;;;;7.38;2.47;;;;;;;;;;4907584;29;20056;-55
2021/06/19 03:38:32;;;;;;;11.55;1.50;;;;;;;;;;4904302;29;20048;-56
2021/06/19 03:40:58;;;;;;;10.00;1.50;;;;;;;;;;4906473;29;20040;-55
2021/06/19 03:43:24;;;;;;;7.82;1.80;;;;;;;;;;4907614;29;20178;-56
2021/06/19 03:45:49;;;;;;;16.90;1.30;;;;;;;;;;4907880;29;20087;-55
2021/06/19 03:48:15;;;;;;;8.32;1.20;;;;;;;;;;4909859;29;20100;-54
2021/06/19 03:50:41;;;;;;;8.02;1.02;;;;;;;;;;4906794;29;20048;-56
2021/06/19 03:53:07;;;;;;;8.05;1.20;;;;;;;;;;4909641;29;20428;-55
2021/06/19 03:55:33;;;;;;;10.48;1.50;;;;;;;;;;4908992;29;20036;-57
2021/06/19 03:57:59;;;;;;;5.88;1.05;;;;;;;;;;4908197;29;20055;-56
2021/06/19 04:00:25;;;;;;;8.23;1.42;;;;;;;;;;4907014;29;20051;-54
2021/06/19 04:02:51;;;;;;;7.75;1.23;;;;;;;;;;4907889;29;20122;-54
2021/06/19 04:05:17;;;;;;;13.88;2.60;;;;;;;;;;4908939;29;20095;-54
2021/06/19 04:07:46;;;;;;;8.32;1.10;;;;;;;;;;4906311;29;20048;-55
2021/06/19 04:10:13;;;;;;;8.25;1.60;;;;;;;;;;4896835;29;20040;-55
2021/06/19 04:12:39;;;;;;;6.72;1.48;;;;;;;;;;4904520;29;20067;-55
2021/06/19 04:15:05;;;;;;;6.50;2.67;;;;;;;;;;4907275;29;20064;-54
2021/06/19 04:17:31;;;;;;;11.23;1.60;;;;;;;;;;4906054;29;20036;-54
2021/06/19 04:19:57;;;;;;;11.63;1.52;;;;;;;;;;4905604;29;20048;-51
2021/06/19 04:22:22;;;;;;;8.45;1.08;;;;;;;;;;4889389;29;20425;-54
2021/06/19 04:24:48;;;;;;;10.48;1.30;;;;;;;;;;4907129;29;20040;-53
2021/06/19 04:27:16;;;;;;;10.88;1.70;;;;;;;;;;4905865;29;20421;-52
2021/06/19 04:29:42;;;;;;;17.75;1.90;;;;;;;;;;4906800;29;20047;-52
2021/06/19 04:32:08;;;;;;;12.75;2.80;;;;;;;;;;4908474;29;20047;-54
2021/06/19 04:34:34;;;;;;;11.13;2.30;;;;;;;;;;4888542;29;20429;-54
2021/06/19 04:37:00;;;;;;;16.92;2.70;;;;;;;;;;4906477;29;20833;-53
2021/06/19 04:39:25;;;;;;;12.13;2.15;;;;;;;;;;4905816;29;20047;-52
2021/06/19 04:42:04;;;;;;;18.65;2.00;;;;;;;;;;4906058;29;20104;-53
2021/06/19 04:47:08;;;;;;;14.35;2.03;;;;;;;;;;4906637;29;20036;-54
2021/06/19 04:49:34;;;;;;;16.13;2.67;;;;;;;;;;4906724;29;20036;-52
2021/06/19 04:52:00;;;;;;;14.43;2.08;;;;;;;;;;4907332;29;20070;-54
2021/06/19 04:54:26;;;;;;;21.80;2.58;;;;;;;;;;4905659;29;20478;-54
2021/06/19 04:56:51;;;;;;;19.80;2.20;;;;;;;;;;4906907;29;20505;-53
2021/06/19 04:59:17;;;;;;;12.00;1.77;;;;;;;;;;4906121;29;20138;-55
2021/06/19 05:01:43;;;;;;;13.88;2.10;;;;;;;;;;4906014;29;20051;-54
2021/06/19 05:04:09;;;;;;;15.70;2.03;;;;;;;;;;4906913;29;20044;-55
2021/06/19 05:06:35;;;;;;;13.73;1.75;;;;;;;;;;4891399;29;20055;-50
2021/06/19 05:09:03;;;;;;;13.52;2.22;;;;;;;;;;4907238;29;20036;-54
2021/06/19 05:11:28;;;;;;;11.65;1.83;;;;;;;;;;4888698;29;20107;-51
2021/06/19 05:13:54;;;;;;;12.73;1.88;;;;;;;;;;4906986;29;20059;-54
2021/06/19 05:16:20;;;;;;;14.95;2.63;;;;;;;;;;4904720;29;20099;-52
2021/06/19 05:18:46;;;;;;;13.15;2.05;;;;;;;;;;4906338;29;20051;-55
2021/06/19 05:21:12;;;;;;;11.43;2.50;;;;;;;;;;4905320;29;20036;-54
2021/06/19 05:23:37;;;;;;;12.00;2.35;;;;;;;;;;4905165;29;20154;-54
2021/06/19 05:26:03;;;;;;;19.92;2.15;;;;;;;;;;4906115;29;20032;-52
2021/06/19 05:28:29;;;;;;;16.88;2.70;;;;;;;;;;4904838;29;20095;-52
2021/06/19 05:30:55;;;;;;;14.90;2.63;;;;;;;;;;4904172;29;20043;-53
2021/06/19 05:33:21;;;;;;;14.68;3.03;;;;;;;;;;4905553;29;20428;-52
2021/06/19 05:35:46;;;;;;;17.20;2.83;;;;;;;;;;4906449;29;20742;-50
2021/06/19 05:38:12;;;;;;;18.75;2.15;;;;;;;;;;4906428;29;20052;-54
2021/06/19 05:40:38;;;;;;;15.30;2.50;;;;;;;;;;4904820;29;20054;-53
2021/06/19 05:43:04;;;;;;;16.27;2.55;;;;;;;;;;4905803;29;20048;-50
2021/06/19 05:45:30;;;;;;;17.48;2.50;;;;;;;;;;4905034;29;20048;-53
2021/06/19 05:47:56;;;;;;;16.40;2.72;;;;;;;;;;4906386;29;20035;-54
2021/06/19 05:50:22;;;;;;;17.98;2.25;;;;;;;;;;4905323;29;20972;-53
2021/06/19 05:52:48;;;;;;;17.23;2.67;;;;;;;;;;4905070;29;20055;-51
2021/06/19 05:55:13;;;;;;;12.07;1.95;;;;;;;;;;4905633;29;20040;-50
2021/06/19 05:57:39;;;;;;;17.10;2.50;;;;;;;;;;4905846;29;20588;-53
2021/06/19 06:00:06;;;;;;;12.13;2.20;;;;;;;;;;4904628;29;20477;-51
2021/06/19 06:02:32;;;;;;;16.70;2.20;;;;;;;;;;4903263;29;20072;-53
2021/06/19 06:04:57;;;;;;;12.07;2.20;;;;;;;;;;4903845;29;20048;-52
2021/06/19 06:07:23;;;;;;;11.15;2.20;;;;;;;;;;4903689;29;20095;-52
2021/06/19 06:09:49;;;;;;;8.57;1.83;;;;;;;;;;4902244;29;20036;-53
2021/06/19 06:12:15;;;;;;;11.10;2.50;;;;;;;;;;4904628;29;20441;-51
2021/06/19 06:14:41;;;;;;;9.45;2.03;;;;;;;;;;4903905;29;20067;-50
2021/06/19 06:17:06;;;;;;;7.22;1.70;;;;;;;;;;4906170;29;20844;-52
2021/06/19 06:19:32;;;;;;;9.85;2.15;;;;;;;;;;4903473;29;20125;-52
2021/06/19 06:21:58;;;;;;;6.95;1.90;;;;;;;;;;4905951;29;20159;-53
2021/06/19 06:24:24;;;;;;;9.63;1.80;;;;;;;;;;4905431;29;20131;-52
2021/06/19 06:26:50;;;;;;;8.93;1.80;;;;;;;;;;4906207;29;21890;-50
2021/06/19 06:29:16;;;;;;;9.85;1.63;;;;;;;;;;4905219;29;20032;-50
2021/06/19 06:31:41;;;;;;;6.25;1.50;;;;;;;;;;4904949;29;20191;-53
2021/06/19 06:34:07;;;;;;;13.15;2.40;;;;;;;;;;4905163;29;20185;-52
2021/06/19 06:36:33;;;;;;;9.15;2.00;;;;;;;;;;4905890;29;20055;-52
2021/06/19 06:39:03;;;;;;;12.98;2.33;;;;;;;;;;4904793;29;20048;-54
2021/06/19 06:41:29;;;;;;;15.02;2.40;;;;;;;;;;4903896;29;20040;-52
2021/06/19 06:43:54;;;;;;;8.80;1.83;;;;;;;;;;4906976;29;20076;-51
2021/06/19 06:46:20;;;;;;;8.10;2.03;;;;;;;;;;4904653;29;20869;-52
2021/06/19 06:48:46;;;;;;;9.68;2.70;;;;;;;;;;4906059;29;20043;-54
2021/06/19 06:51:12;;;;;;;10.32;2.20;;;;;;;;;;4905454;29;20889;-52
2021/06/19 06:53:38;;;;;;;7.60;2.35;;;;;;;;;;4903658;29;20064;-53
2021/06/19 06:56:03;;;;;;;8.63;2.47;;;;;;;;;;4906375;29;20421;-53
2021/06/19 06:58:29;;;;;;;9.77;1.88;;;;;;;;;;4904455;29;20039;-50
2021/06/19 07:00:55;;;;;;;11.55;1.85;;;;;;;;;;4904860;29;20130;-51
2021/06/19 07:03:23;;;;;;;11.30;2.95;;;;;;;;;;4904503;29;20040;-55
2021/06/19 07:05:49;;;;;;;7.22;2.00;;;;;;;;;;4906886;29;20036;-52
2021/06/19 07:08:14;;;;;;;7.75;1.90;;;;;;;;;;4905142;29;20680;-52
2021/06/19 07:10:40;;;;;;;12.07;2.55;;;;;;;;;;4904285;29;20047;-50
2021/06/19 07:13:06;;;;;;;10.57;2.50;;;;;;;;;;4890082;29;20078;-53
2021/06/19 07:15:32;;;;;;;14.18;2.42;;;;;;;;;;4906030;29;20052;-53
2021/06/19 07:17:58;;;;;;;10.13;2.42;;;;;;;;;;4905518;29;20387;-54
2021/06/19 07:20:23;;;;;;;9.73;2.85;;;;;;;;;;4903763;29;20048;-55
2021/06/19 07:22:49;;;;;;;15.05;1.90;;;;;;;;;;4903558;29;20513;-53
2021/06/19 07:25:16;;;;;;;8.63;2.05;;;;;;;;;;4905538;29;20043;-55
2021/06/19 07:27:42;;;;;;;8.20;1.70;;;;;;;;;;4905204;29;20413;-53
2021/06/19 07:30:09;;;;;;;13.32;2.13;;;;;;;;;;4903694;29;20052;-49
2021/06/19 07:32:35;;;;;;;6.70;1.73;;;;;;;;;;4905135;29;20107;-53
2021/06/19 07:35:02;;;;;;;11.27;1.50;;;;;;;;;;4905388;29;20040;-53
2021/06/19 07:37:27;;;;;;;7.18;1.35;;;;;;;;;;4904138;29;20040;-52
2021/06/19 07:39:54;;;;;;;8.98;1.55;;;;;;;;;;4905282;29;20055;-54
2021/06/19 07:42:23;;;;;;;10.15;1.70;;;;;;;;;;4904788;29;20052;-54
2021/06/19 07:44:50;;;;;;;9.65;1.27;;;;;;;;;;4906095;29;20099;-54
2021/06/19 07:47:15;;;;;;;12.35;1.55;;;;;;;;;;4904603;29;20092;-53
2021/06/19 07:49:41;;;;;;;7.10;1.38;;;;;;;;;;4903135;29;20906;-51
2021/06/19 07:52:07;;;;;;;4.90;1.20;;;;;;;;;;4906231;29;20068;-52
2021/06/19 07:54:37;;;;;;;6.32;1.30;;;;;;;;;;4907348;29;20536;-53
2021/06/19 07:57:04;;;;;;;11.82;1.27;;;;;;;;;;4907713;29;20044;-54
2021/06/19 07:59:30;;;;;;;5.30;1.20;;;;;;;;;;4908556;29;20032;-53
2021/06/19 08:01:55;;;;;;;7.55;1.08;;;;;;;;;;4909013;29;20050;-55
2021/06/19 08:04:21;;;;;;;7.00;1.40;;;;;;;;;;4907904;29;20093;-51
2021/06/19 08:06:47;;;;;;;6.90;1.40;;;;;;;;;;4908802;29;20048;-54
2021/06/19 08:09:13;;;;;;;8.13;1.30;;;;;;;;;;4908115;29;20039;-53
2021/06/19 08:11:39;;;;;;;11.30;1.50;;;;;;;;;;4907181;29;20048;-52
2021/06/19 08:14:04;;;;;;;5.28;1.30;;;;;;;;;;4908794;29;20055;-51
2021/06/19 08:16:31;;;;;;;7.10;1.20;;;;;;;;;;4906833;29;20140;-51
2021/06/19 08:18:56;;;;;;;9.18;1.30;;;;;;;;;;4889586;29;20536;-54
2021/06/19 08:21:22;;;;;;;6.00;0.93;;;;;;;;;;4906199;29;20052;-54
2021/06/19 08:23:48;;;;;;;12.15;1.40;;;;;;;;;;4908419;29;20052;-53
2021/06/19 08:26:14;;;;;;;8.90;2.47;;;;;;;;;;4908155;29;20036;-54
2021/06/19 08:28:40;;;;;;;10.45;1.40;;;;;;;;;;4906334;29;20051;-54
2021/06/19 08:31:05;;;;;;;9.43;1.50;;;;;;;;;;4907995;29;20039;-54
2021/06/19 08:33:32;;;;;;;10.27;1.13;;;;;;;;;;4906999;29;20136;-53
2021/06/19 08:35:57;;;;;;;16.83;1.60;;;;;;;;;;4907603;29;20044;-52
2021/06/19 08:38:23;;;;;;;8.70;1.52;;;;;;;;;;4906322;29;20136;-54
2021/06/19 08:40:49;;;;;;;7.60;1.38;;;;;;;;;;4907001;29;20071;-54
2021/06/19 08:43:17;;;;;;;6.95;1.10;;;;;;;;;;4908642;29;20052;-54
2021/06/19 08:45:43;;;;;;;6.93;1.83;;;;;;;;;;4906940;29;20103;-55
2021/06/19 08:48:10;;;;;;;12.85;2.28;;;;;;;;;;4906632;29;20178;-54
2021/06/19 08:50:39;;;;;;;10.43;1.60;;;;;;;;;;4905807;29;20040;-51
2021/06/19 08:53:05;;;;;;;5.30;1.30;;;;;;;;;;4905834;29;20048;-54
2021/06/19 08:55:31;;;;;;;13.02;1.38;;;;;;;;;;4906054;29;20043;-53
2021/06/19 08:57:56;;;;;;;6.20;1.38;;;;;;;;;;4908072;29;20075;-51
2021/06/19 09:00:22;;;;;;;5.90;1.35;;;;;;;;;;4905689;29;20043;-53
2021/06/19 09:02:50;;;;;;;12.40;1.52;;;;;;;;;;4906755;29;20501;-51
2021/06/19 09:05:16;;;;;;;8.18;1.98;;;;;;;;;;4907249;29;20441;-54
2021/06/19 09:07:49;;;;;;;7.82;1.50;;;;;;;;;;4905764;29;20032;-52
2021/06/19 09:10:15;;;;;;;7.35;2.22;;;;;;;;;;4906327;29;20645;-54
2021/06/19 09:12:52;;;;;;;12.35;1.70;;;;;;;;;;4907949;29;20059;-53
2021/06/19 09:15:18;;;;;;;7.13;1.40;;;;;;;;;;4908088;29;20056;-51
2021/06/19 09:17:59;;;;;;;8.90;1.90;;;;;;;;;;4908501;29;20055;-51
2021/06/19 09:20:54;;;;;;;6.78;1.63;;;;;;;;;;4906808;29;20040;-51
2021/06/19 09:23:33;;;;;;;8.57;1.70;;;;;;;;;;4888138;29;20098;-53
2021/06/19 09:26:08;;;;;;;6.28;1.80;;;;;;;;;;4907257;29;20036;-51
2021/06/19 09:28:54;;;;;;;12.13;1.92;;;;;;;;;;4904791;29;20055;-52
2021/06/19 09:31:38;;;;;;;8.98;1.60;;;;;;;;;;4905062;29;20130;-53
2021/06/19 09:34:09;;;;;;;9.23;1.20;;;;;;;;;;4906444;29;20055;-53
2021/06/19 09:36:36;;;;;;;9.18;1.83;;;;;;;;;;4905412;29;20032;-53
2021/06/19 09:39:05;;;;;;;9.43;1.73;;;;;;;;;;4905045;29;20480;-53
2021/06/19 09:41:35;;;;;;;8.55;1.35;;;;;;;;;;4906100;29;20158;-53
2021/06/19 09:44:00;;;;;;;5.65;1.58;;;;;;;;;;4907856;29;20044;-52
2021/06/19 09:46:26;;;;;;;6.93;1.52;;;;;;;;;;4904595;29;20319;-52
2021/06/19 09:48:52;;;;;;;9.90;2.00;;;;;;;;;;4906298;29;20059;-52
2021/06/19 09:51:21;;;;;;;3.90;1.65;;;;;;;;;;4907109;29;20122;-52
2021/06/19 09:53:47;;;;;;;5.82;1.48;;;;;;;;;;4905268;29;20056;-54
2021/06/19 09:56:13;;;;;;;5.70;1.70;;;;;;;;;;4907694;29;20028;-51
2021/06/19 09:58:44;;;;;;;5.28;1.67;;;;;;;;;;4903569;29;20127;-54
2021/06/19 10:01:10;;;;;;;8.18;1.45;;;;;;;;;;4907232;29;20050;-52
2021/06/19 10:03:52;;;;;;;4.63;1.90;;;;;;;;;;4905260;29;20054;-54
2021/06/19 10:06:18;;;;;;;6.45;1.92;;;;;;;;;;4904533;29;20055;-52
2021/06/19 10:08:48;;;;;;;4.60;1.80;;;;;;;;;;4905817;29;20044;-54
2021/06/19 10:11:14;;;;;;;4.80;2.00;;;;;;;;;;4905073;29;20039;-54
2021/06/19 10:13:42;;;;;;;6.15;1.83;;;;;;;;;;4904532;29;20043;-51
2021/06/19 10:16:09;;;;;;;6.43;1.80;;;;;;;;;;4905090;29;20071;-53
2021/06/19 10:18:35;;;;;;;8.68;2.28;;;;;;;;;;4905405;29;20128;-51
2021/06/19 10:21:00;;;;;;;5.55;2.30;;;;;;;;;;4904895;29;20054;-51
2021/06/19 10:23:26;;;;;;;7.60;2.10;;;;;;;;;;4905521;29;20064;-51
2021/06/19 10:25:53;;;;;;;6.95;1.80;;;;;;;;;;4905830;29;20063;-52
2021/06/19 10:28:19;;;;;;;5.88;1.77;;;;;;;;;;4906965;29;20059;-54
2021/06/19 10:30:44;;;;;;;7.03;2.20;;;;;;;;;;4904355;29;20036;-53
2021/06/19 10:33:30;;;;;;;7.78;2.15;;;;;;;;;;4886640;29;20052;-53
2021/06/19 10:35:57;;;;;;;5.20;2.08;;;;;;;;;;4904562;29;20195;-51
2021/06/19 10:38:23;;;;;;;4.80;2.42;;;;;;;;;;4905485;29;20121;-54
2021/06/19 10:40:53;;;;;;;5.75;2.90;;;;;;;;;;4906111;29;20138;-54
2021/06/19 10:43:22;;;;;;;8.30;2.75;;;;;;;;;;4905793;29;20040;-51
2021/06/19 10:45:49;;;;;;;9.35;3.05;;;;;;;;;;4906144;29;20275;-51
2021/06/19 10:48:16;;;;;;;6.68;3.03;;;;;;;;;;4903338;29;20159;-53
2021/06/19 10:50:43;;;;;;;7.15;3.08;;;;;;;;;;4906820;29;20486;-55
2021/06/19 10:53:10;;;;;;;9.93;3.15;;;;;;;;;;4907067;29;20079;-54
2021/06/19 10:55:42;;;;;;;6.45;3.50;;;;;;;;;;4908380;29;20044;-54
2021/06/19 10:58:25;;;;;;;10.13;2.72;;;;;;;;;;4904996;29;20411;-51
2021/06/19 11:00:58;;;;;;;4.15;2.58;;;;;;;;;;4906846;29;20066;-54
2021/06/19 11:03:39;;;;;;;6.75;3.40;;;;;;;;;;4905257;29;20048;-52
2021/06/19 11:06:23;;;;;;;4.07;2.28;;;;;;;;;;4906182;29;20048;-51
2021/06/19 11:08:58;;;;;;;8.52;3.88;;;;;;;;;;4887891;29;20468;-51
2021/06/19 11:11:43;;;;;;;9.23;3.80;;;;;;;;;;4904237;29;20040;-53
2021/06/19 11:14:08;;;;;;;6.28;3.33;;;;;;;;;;4905621;29;20253;-51
2021/06/19 11:16:34;;;;;;;8.90;3.50;;;;;;;;;;4905139;29;20044;-54
2021/06/19 11:19:00;;;;;;;6.70;4.55;;;;;;;;;;4906394;29;20044;-51
2021/06/19 11:21:32;;;;;;;10.65;5.32;;;;;;;;;;4905410;29;20047;-54
2021/06/19 11:24:00;;;;;;;8.85;4.88;;;;;;;;;;4907420;29;20177;-51
2021/06/19 11:26:51;;;;;;;6.63;3.92;;;;;;;;;;4903981;29;20489;-52
2021/06/19 11:29:39;;;;;;;8.27;4.53;;;;;;;;;;4907795;29;20452;-52
2021/06/19 11:32:24;;;;;;;9.23;4.85;;;;;;;;;;4908178;29;20052;-53
2021/06/19 11:34:54;;;;;;;7.70;3.92;;;;;;;;;;4907895;29;20795;-52
2021/06/19 11:37:20;;;;;;;8.65;5.30;;;;;;;;;;4908047;29;20051;-53
2021/06/19 11:39:46;;;;;;;9.02;4.45;;;;;;;;;;4908837;29;20051;-54
2021/06/19 11:42:12;;;;;;;8.80;4.80;;;;;;;;;;4908125;29;20040;-52
2021/06/19 11:44:42;;;;;;;6.13;4.10;;;;;;;;;;4907060;29;20047;-51
2021/06/19 11:47:08;;;;;;;8.18;4.72;;;;;;;;;;4907264;29;20048;-53
2021/06/19 11:49:35;;;;;;;12.02;5.05;;;;;;;;;;4907058;29;20485;-54
2021/06/19 11:52:01;;;;;;;7.07;4.40;;;;;;;;;;4908236;29;20082;-52
2021/06/19 11:54:27;;;;;;;8.38;4.35;;;;;;;;;;4906070;29;20139;-52
2021/06/19 11:56:57;;;;;;;7.63;4.35;;;;;;;;;;4909855;29;20048;-54
2021/06/19 11:59:23;;;;;;;8.35;4.22;;;;;;;;;;4908152;29;20509;-52
2021/06/19 12:01:49;;;;;;;8.43;4.57;;;;;;;;;;4908063;29;20036;-53
2021/06/19 12:04:20;;;;;;;6.72;3.97;;;;;;;;;;4908005;29;20051;-53
2021/06/19 12:06:54;;;;;;;7.15;5.03;;;;;;;;;;4889848;29;20127;-54
2021/06/19 12:09:21;;;;;;;6.78;4.15;;;;;;;;;;4908433;29;20389;-54
2021/06/19 12:11:48;;;;;;;6.82;3.72;;;;;;;;;;4907581;29;20043;-52
2021/06/19 12:14:37;;;;;;;7.65;4.10;;;;;;;;;;4909073;29;20717;-53
2021/06/19 12:17:06;;;;;;;9.10;4.47;;;;;;;;;;4891490;29;20064;-53
2021/06/19 12:19:33;;;;;;;6.78;3.90;;;;;;;;;;4907162;29;20055;-50
2021/06/19 12:22:01;;;;;;;7.68;4.47;;;;;;;;;;4908161;29;20047;-51
2021/06/19 12:24:47;;;;;;;7.00;4.65;;;;;;;;;;4904467;29;20055;-52
2021/06/19 12:27:15;;;;;;;6.32;3.97;;;;;;;;;;4907747;29;20044;-52
2021/06/19 12:29:53;;;;;;;8.20;5.15;;;;;;;;;;4890177;29;20048;-55
2021/06/19 12:32:23;;;;;;;11.10;5.40;;;;;;;;;;4907509;29;22093;-52
2021/06/19 12:34:50;;;;;;;7.13;4.05;;;;;;;;;;4907711;29;20060;-52
2021/06/19 12:37:20;;;;;;;7.90;4.10;;;;;;;;;;4907533;29;20055;-55
2021/06/19 12:39:46;;;;;;;8.30;4.78;;;;;;;;;;4906608;29;20051;-55
2021/06/19 12:42:12;;;;;;;7.45;4.50;;;;;;;;;;4906494;29;20040;-54
2021/06/19 12:44:58;;;;;;;7.88;5.15;;;;;;;;;;4887399;29;20060;-55
2021/06/19 12:47:24;;;;;;;7.20;5.03;;;;;;;;;;4906184;29;20096;-55
2021/06/19 12:49:56;;;;;;;8.20;5.30;;;;;;;;;;4907907;29;20044;-54
2021/06/19 12:52:22;;;;;;;8.43;4.60;;;;;;;;;;4907710;29;20032;-55
2021/06/19 12:54:48;;;;;;;7.82;5.70;;;;;;;;;;4906307;29;20052;-53
2021/06/19 12:57:18;;;;;;;9.35;4.55;;;;;;;;;;4906383;29;20028;-55
2021/06/19 12:59:47;;;;;;;11.00;5.22;;;;;;;;;;4905642;29;20044;-55
2021/06/19 13:02:14;;;;;;;9.85;5.78;;;;;;;;;;4874021;29;20032;-52
2021/06/19 13:04:40;;;;;;;7.75;5.40;;;;;;;;;;4906374;29;20417;-54
2021/06/19 13:07:06;;;;;;;9.77;5.25;;;;;;;;;;4887605;29;20099;-52
2021/06/19 13:09:52;;;;;;;12.32;5.22;;;;;;;;;;4905413;29;20401;-54
2021/06/19 13:12:22;;;;;;;8.93;5.00;;;;;;;;;;4906769;29;20919;-54
2021/06/19 13:15:06;;;;;;;10.27;5.68;;;;;;;;;;4906792;29;20318;-54
2021/06/19 13:17:41;;;;;;;10.13;6.07;;;;;;;;;;4905292;29;20087;-54
2021/06/19 13:20:23;;;;;;;10.55;5.38;;;;;;;;;;4907677;29;20052;-53
2021/06/19 13:23:24;;;;;;;11.75;5.65;;;;;;;;;;4907181;29;20044;-54
2021/06/19 13:25:50;;;;;;;12.25;5.88;;;;;;;;;;4831137;29;20631;-54
2021/06/19 13:28:33;;;;;;;12.43;6.18;;;;;;;;;;4891160;29;20040;-54
2021/06/19 13:31:05;;;;;;;7.43;5.28;;;;;;;;;;4905170;29;20040;-54
2021/06/19 13:33:31;;;;;;;8.48;5.90;;;;;;;;;;4903256;29;20124;-54
2021/06/19 13:35:56;;;;;;;7.75;4.80;;;;;;;;;;4906253;29;20043;-54
2021/06/19 13:38:22;;;;;;;9.00;4.78;;;;;;;;;;4905104;29;20055;-52
2021/06/19 13:40:48;;;;;;;10.55;5.40;;;;;;;;;;4904836;29;20112;-52
2021/06/19 13:43:14;;;;;;;10.73;5.07;;;;;;;;;;4905776;29;20051;-54
2021/06/19 13:45:40;;;;;;;6.38;4.18;;;;;;;;;;4904818;29;20052;-56
2021/06/19 13:48:06;;;;;;;9.00;4.15;;;;;;;;;;4904889;29;20075;-53
2021/06/19 13:50:32;;;;;;;10.27;5.60;;;;;;;;;;4905045;29;20095;-53
2021/06/19 13:53:01;;;;;;;8.32;3.83;;;;;;;;;;4905282;29;20136;-53
2021/06/19 13:55:28;;;;;;;9.82;4.40;;;;;;;;;;4889231;29;20119;-52
2021/06/19 13:57:54;;;;;;;12.88;7.63;;;;;;;;;;4905720;29;20118;-50
2021/06/19 14:00:20;;;;;;;11.43;5.90;;;;;;;;;;4905164;29;20036;-51
2021/06/19 14:02:46;;;;;;;8.77;4.80;;;;;;;;;;4905667;29;20072;-54
2021/06/19 14:05:11;;;;;;;8.30;4.32;;;;;;;;;;4906000;29;20138;-53
2021/06/19 14:07:37;;;;;;;8.70;4.47;;;;;;;;;;4903055;29;20170;-50
2021/06/19 14:10:04;;;;;;;9.20;4.93;;;;;;;;;;4906070;29;20040;-54
2021/06/19 14:12:30;;;;;;;11.65;5.05;;;;;;;;;;4905068;29;20036;-51
2021/06/19 14:14:55;;;;;;;7.63;3.30;;;;;;;;;;4906216;29;20058;-54
2021/06/19 14:17:21;;;;;;;6.22;3.10;;;;;;;;;;4886888;29;20044;-53
2021/06/19 14:19:47;;;;;;;4.95;2.72;;;;;;;;;;4905871;29;20752;-50
2021/06/19 14:22:13;;;;;;;11.70;3.33;;;;;;;;;;4905135;29;20059;-52
2021/06/19 14:24:39;;;;;;;5.72;2.72;;;;;;;;;;4905605;29;20050;-54
2021/06/19 14:27:11;;;;;;;5.65;2.75;;;;;;;;;;4905412;29;20593;-53
2021/06/19 14:29:37;;;;;;;4.13;2.33;;;;;;;;;;4903469;29;20043;-54
2021/06/19 14:32:03;;;;;;;4.55;2.67;;;;;;;;;;4903493;29;20174;-55
2021/06/19 14:34:30;;;;;;;4.70;2.40;;;;;;;;;;4890115;29;20092;-56
2021/06/19 14:36:56;;;;;;;8.13;3.45;;;;;;;;;;4903965;29;20636;-55
2021/06/19 14:39:22;;;;;;;5.00;2.70;;;;;;;;;;4904849;29;20054;-56
2021/06/19 14:41:48;;;;;;;8.98;3.15;;;;;;;;;;4906261;29;20044;-55
2021/06/19 14:44:15;;;;;;;4.55;2.60;;;;;;;;;;4906967;29;20425;-55